sensor_id;sensor_type;location;lat;lon;timestamp;temperature;humidity
74869;DHT22;63419;42.262;12.210;2023-02-21T00:01:41;8.00;99.90
74869;DHT22;63419;42.262;12.210;2023-02-21T00:04:27;8.10;99.90
74869;DHT22;63419;42.262;12.210;2023-02-21T00:07:13;8.10;99.90
74869;DHT22;63419;42.262;12.210;2023-02-21T00:09:59;8.20;99.90
74869;DHT22;63419;42.262;12.210;2023-02-21T00:12:45;8.30;99.90
74869;DHT22;63419;42.262;12.210;2023-02-21T00:15:32;8.30;99.90
74869;DHT22;63419;42.262;12.210;2023-02-21T00:18:18;8.40;99.90
74869;DHT22;63419;42.262;12.210;2023-02-21T00:21:04;8.40;99.90
74869;DHT22;63419;42.262;12.210;2023-02-21T00:23:50;8.30;99.90
74869;DHT22;63419;42.262;12.210;2023-02-21T00:26:36;8.30;99.90
74869;DHT22;63419;42.262;12.210;2023-02-21T00:29:22;8.30;99.90
74869;DHT22;63419;42.262;12.210;2023-02-21T00:32:08;8.50;99.90
74869;DHT22;63419;42.262;12.210;2023-02-21T00:34:53;8.40;99.90
74869;DHT22;63419;42.262;12.210;2023-02-21T00:37:39;8.50;99.90
74869;DHT22;63419;42.262;12.210;2023-02-21T00:40:25;8.50;99.90
74869;DHT22;63419;42.262;12.210;2023-02-21T00:43:11;8.40;99.90
74869;DHT22;63419;42.262;12.210;2023-02-21T00:45:57;8.30;99.90
74869;DHT22;63419;42.262;12.210;2023-02-21T00:48:42;8.30;99.90
74869;DHT22;63419;42.262;12.210;2023-02-21T00:51:28;8.30;99.90
74869;DHT22;63419;42.262;12.210;2023-02-21T00:54:14;8.10;99.90
74869;DHT22;63419;42.262;12.210;2023-02-21T00:56:59;8.20;99.90
74869;DHT22;63419;42.262;12.210;2023-02-21T00:59:45;8.20;99.90
74869;DHT22;63419;42.262;12.210;2023-02-21T01:02:31;8.10;99.90
74869;DHT22;63419;42.262;12.210;2023-02-21T01:05:16;8.10;99.90
74869;DHT22;63419;42.262;12.210;2023-02-21T01:08:02;8.20;99.90
74869;DHT22;63419;42.262;12.210;2023-02-21T01:10:48;8.10;99.90
74869;DHT22;63419;42.262;12.210;2023-02-21T01:13:33;8.30;99.90
74869;DHT22;63419;42.262;12.210;2023-02-21T01:16:20;8.40;99.90
74869;DHT22;63419;42.262;12.210;2023-02-21T01:19:06;8.40;99.90
74869;DHT22;63419;42.262;12.210;2023-02-21T01:21:52;8.50;99.90
74869;DHT22;63419;42.262;12.210;2023-02-21T01:24:38;8.40;99.90
74869;DHT22;63419;42.262;12.210;2023-02-21T01:27:23;8.50;99.90
74869;DHT22;63419;42.262;12.210;2023-02-21T01:30:09;8.60;99.90
74869;DHT22;63419;42.262;12.210;2023-02-21T01:32:56;8.50;99.90
74869;DHT22;63419;42.262;12.210;2023-02-21T01:35:42;8.50;99.90
74869;DHT22;63419;42.262;12.210;2023-02-21T01:38:32;8.40;99.90
74869;DHT22;63419;42.262;12.210;2023-02-21T01:41:21;8.40;99.90
74869;DHT22;63419;42.262;12.210;2023-02-21T01:44:32;8.50;99.90
74869;DHT22;63419;42.262;12.210;2023-02-21T01:47:24;8.60;99.90
74869;DHT22;63419;42.262;12.210;2023-02-21T01:50:20;8.70;99.90
74869;DHT22;63419;42.262;12.210;2023-02-21T01:53:18;8.70;99.90
74869;DHT22;63419;42.262;12.210;2023-02-21T01:56:08;8.80;99.90
74869;DHT22;63419;42.262;12.210;2023-02-21T01:58:57;8.80;99.90
74869;DHT22;63419;42.262;12.210;2023-02-21T02:02:27;8.20;99.90
74869;DHT22;63419;42.262;12.210;2023-02-21T02:05:14;8.40;99.90
74869;DHT22;63419;42.262;12.210;2023-02-21T02:08:03;8.50;99.90
74869;DHT22;63419;42.262;12.210;2023-02-21T02:44:48;8.80;99.90
74869;DHT22;63419;42.262;12.210;2023-02-21T02:47:24;8.90;99.90
74869;DHT22;63419;42.262;12.210;2023-02-21T02:50:07;9.00;99.90
74869;DHT22;63419;42.262;12.210;2023-02-21T02:52:36;9.00;99.90
74869;DHT22;63419;42.262;12.210;2023-02-21T02:58:09;9.20;99.90
74869;DHT22;63419;42.262;12.210;2023-02-21T03:00:43;9.30;99.90
74869;DHT22;63419;42.262;12.210;2023-02-21T03:03:27;9.40;99.90
74869;DHT22;63419;42.262;12.210;2023-02-21T03:06:24;9.40;99.90
74869;DHT22;63419;42.262;12.210;2023-02-21T03:09:23;9.50;99.90
74869;DHT22;63419;42.262;12.210;2023-02-21T03:12:07;9.50;99.90
74869;DHT22;63419;42.262;12.210;2023-02-21T03:15:23;9.40;99.90
74869;DHT22;63419;42.262;12.210;2023-02-21T03:18:19;9.50;99.90
74869;DHT22;63419;42.262;12.210;2023-02-21T03:20:54;9.50;99.90
74869;DHT22;63419;42.262;12.210;2023-02-21T03:23:27;9.60;99.90
74869;DHT22;63419;42.262;12.210;2023-02-21T03:26:02;9.50;99.90
74869;DHT22;63419;42.262;12.210;2023-02-21T03:28:33;9.50;99.90
74869;DHT22;63419;42.262;12.210;2023-02-21T03:31:03;9.60;99.90
74869;DHT22;63419;42.262;12.210;2023-02-21T03:33:35;9.70;99.90
74869;DHT22;63419;42.262;12.210;2023-02-21T03:36:05;9.70;99.90
74869;DHT22;63419;42.262;12.210;2023-02-21T03:38:35;9.60;99.90
74869;DHT22;63419;42.262;12.210;2023-02-21T03:41:06;9.60;99.90
74869;DHT22;63419;42.262;12.210;2023-02-21T03:43:34;9.60;99.90
74869;DHT22;63419;42.262;12.210;2023-02-21T03:46:01;9.60;99.90
74869;DHT22;63419;42.262;12.210;2023-02-21T03:48:28;9.60;99.90
74869;DHT22;63419;42.262;12.210;2023-02-21T03:50:58;9.60;99.90
74869;DHT22;63419;42.262;12.210;2023-02-21T03:53:26;9.50;99.90
74869;DHT22;63419;42.262;12.210;2023-02-21T03:55:53;9.30;99.90
74869;DHT22;63419;42.262;12.210;2023-02-21T03:58:20;9.30;99.90
74869;DHT22;63419;42.262;12.210;2023-02-21T04:00:48;9.30;99.90
74869;DHT22;63419;42.262;12.210;2023-02-21T04:03:19;9.20;99.90
74869;DHT22;63419;42.262;12.210;2023-02-21T04:05:46;9.20;99.90
74869;DHT22;63419;42.262;12.210;2023-02-21T04:08:13;9.30;99.90
74869;DHT22;63419;42.262;12.210;2023-02-21T04:10:43;9.30;99.90
74869;DHT22;63419;42.262;12.210;2023-02-21T04:13:18;9.20;99.90
74869;DHT22;63419;42.262;12.210;2023-02-21T04:15:49;9.10;99.90
74869;DHT22;63419;42.262;12.210;2023-02-21T04:18:17;9.00;99.90
74869;DHT22;63419;42.262;12.210;2023-02-21T04:20:44;9.10;99.90
74869;DHT22;63419;42.262;12.210;2023-02-21T04:23:20;9.10;99.90
74869;DHT22;63419;42.262;12.210;2023-02-21T04:25:48;9.20;99.90
74869;DHT22;63419;42.262;12.210;2023-02-21T04:28:15;9.20;99.90
74869;DHT22;63419;42.262;12.210;2023-02-21T04:30:42;9.20;99.90
74869;DHT22;63419;42.262;12.210;2023-02-21T04:33:13;9.30;99.90
74869;DHT22;63419;42.262;12.210;2023-02-21T04:35:40;9.40;99.90
74869;DHT22;63419;42.262;12.210;2023-02-21T04:38:09;9.40;99.90
74869;DHT22;63419;42.262;12.210;2023-02-21T04:40:36;9.40;99.90
74869;DHT22;63419;42.262;12.210;2023-02-21T04:43:03;9.50;99.90
74869;DHT22;63419;42.262;12.210;2023-02-21T04:45:31;9.60;99.90
74869;DHT22;63419;42.262;12.210;2023-02-21T04:47:58;9.60;99.90
74869;DHT22;63419;42.262;12.210;2023-02-21T04:50:27;9.50;99.90
74869;DHT22;63419;42.262;12.210;2023-02-21T04:52:55;9.40;99.90
74869;DHT22;63419;42.262;12.210;2023-02-21T04:55:22;9.40;99.90
74869;DHT22;63419;42.262;12.210;2023-02-21T04:57:51;9.40;99.90
74869;DHT22;63419;42.262;12.210;2023-02-21T05:00:18;9.50;99.90
74869;DHT22;63419;42.262;12.210;2023-02-21T05:02:46;9.30;99.90
74869;DHT22;63419;42.262;12.210;2023-02-21T05:05:13;9.20;99.90
74869;DHT22;63419;42.262;12.210;2023-02-21T05:07:42;9.10;99.90
74869;DHT22;63419;42.262;12.210;2023-02-21T05:10:10;9.00;99.90
74869;DHT22;63419;42.262;12.210;2023-02-21T05:12:38;9.00;99.90
74869;DHT22;63419;42.262;12.210;2023-02-21T05:15:07;8.90;99.90
74869;DHT22;63419;42.262;12.210;2023-02-21T05:17:35;8.90;99.90
74869;DHT22;63419;42.262;12.210;2023-02-21T05:20:03;8.90;99.90
74869;DHT22;63419;42.262;12.210;2023-02-21T05:22:33;8.90;99.90
74869;DHT22;63419;42.262;12.210;2023-02-21T05:25:22;9.00;99.90
74869;DHT22;63419;42.262;12.210;2023-02-21T05:27:51;9.10;99.90
74869;DHT22;63419;42.262;12.210;2023-02-21T05:30:21;9.30;99.90
74869;DHT22;63419;42.262;12.210;2023-02-21T05:32:52;9.30;99.90
74869;DHT22;63419;42.262;12.210;2023-02-21T05:35:20;9.30;99.90
74869;DHT22;63419;42.262;12.210;2023-02-21T05:37:48;9.40;99.90
74869;DHT22;63419;42.262;12.210;2023-02-21T05:40:16;9.50;99.90
74869;DHT22;63419;42.262;12.210;2023-02-21T05:42:45;9.50;99.90
74869;DHT22;63419;42.262;12.210;2023-02-21T05:45:16;9.70;99.90
74869;DHT22;63419;42.262;12.210;2023-02-21T05:47:46;9.70;99.90
74869;DHT22;63419;42.262;12.210;2023-02-21T05:50:15;9.70;99.90
74869;DHT22;63419;42.262;12.210;2023-02-21T05:52:45;9.70;99.90
74869;DHT22;63419;42.262;12.210;2023-02-21T05:55:14;9.80;99.90
74869;DHT22;63419;42.262;12.210;2023-02-21T05:57:44;9.80;99.90
74869;DHT22;63419;42.262;12.210;2023-02-21T06:00:23;9.90;99.90
74869;DHT22;63419;42.262;12.210;2023-02-21T06:02:56;9.90;99.90
74869;DHT22;63419;42.262;12.210;2023-02-21T06:05:23;9.90;99.90
74869;DHT22;63419;42.262;12.210;2023-02-21T06:07:54;9.60;99.90
74869;DHT22;63419;42.262;12.210;2023-02-21T06:10:24;9.30;99.90
74869;DHT22;63419;42.262;12.210;2023-02-21T06:12:53;9.30;99.90
74869;DHT22;63419;42.262;12.210;2023-02-21T06:15:21;9.40;99.90
74869;DHT22;63419;42.262;12.210;2023-02-21T06:17:51;9.60;99.90
74869;DHT22;63419;42.262;12.210;2023-02-21T06:20:19;9.60;99.90
74869;DHT22;63419;42.262;12.210;2023-02-21T06:22:50;9.70;99.90
74869;DHT22;63419;42.262;12.210;2023-02-21T06:25:20;9.70;99.90
74869;DHT22;63419;42.262;12.210;2023-02-21T06:27:50;9.70;99.90
74869;DHT22;63419;42.262;12.210;2023-02-21T06:30:23;9.80;99.90
74869;DHT22;63419;42.262;12.210;2023-02-21T06:32:51;9.80;99.90
74869;DHT22;63419;42.262;12.210;2023-02-21T06:35:21;9.80;99.90
74869;DHT22;63419;42.262;12.210;2023-02-21T06:37:49;9.80;99.90
74869;DHT22;63419;42.262;12.210;2023-02-21T06:40:20;9.90;99.90
74869;DHT22;63419;42.262;12.210;2023-02-21T06:42:49;9.90;99.90
74869;DHT22;63419;42.262;12.210;2023-02-21T06:45:16;9.90;99.90
74869;DHT22;63419;42.262;12.210;2023-02-21T06:47:44;9.90;99.90
74869;DHT22;63419;42.262;12.210;2023-02-21T06:50:12;9.90;99.90
74869;DHT22;63419;42.262;12.210;2023-02-21T06:52:40;10.00;99.90
74869;DHT22;63419;42.262;12.210;2023-02-21T06:55:07;10.00;99.90
74869;DHT22;63419;42.262;12.210;2023-02-21T06:57:35;9.90;99.90
74869;DHT22;63419;42.262;12.210;2023-02-21T07:00:07;10.00;99.90
74869;DHT22;63419;42.262;12.210;2023-02-21T07:02:36;10.10;99.90
74869;DHT22;63419;42.262;12.210;2023-02-21T07:05:07;10.20;99.90
74869;DHT22;63419;42.262;12.210;2023-02-21T07:07:36;10.40;99.90
74869;DHT22;63419;42.262;12.210;2023-02-21T07:10:05;10.40;99.90
74869;DHT22;63419;42.262;12.210;2023-02-21T07:12:34;10.50;99.90
74869;DHT22;63419;42.262;12.210;2023-02-21T07:15:03;10.60;99.90
74869;DHT22;63419;42.262;12.210;2023-02-21T07:17:30;10.60;99.90
74869;DHT22;63419;42.262;12.210;2023-02-21T07:19:58;10.70;99.90
74869;DHT22;63419;42.262;12.210;2023-02-21T07:22:27;10.70;99.90
74869;DHT22;63419;42.262;12.210;2023-02-21T07:24:55;10.80;99.90
74869;DHT22;63419;42.262;12.210;2023-02-21T07:27:22;10.80;99.90
74869;DHT22;63419;42.262;12.210;2023-02-21T07:29:51;10.90;99.90
74869;DHT22;63419;42.262;12.210;2023-02-21T07:32:21;11.00;99.90
74869;DHT22;63419;42.262;12.210;2023-02-21T07:34:49;11.10;99.90
74869;DHT22;63419;42.262;12.210;2023-02-21T07:37:17;11.10;99.90
74869;DHT22;63419;42.262;12.210;2023-02-21T07:39:45;11.30;99.90
74869;DHT22;63419;42.262;12.210;2023-02-21T07:42:13;11.20;99.90
74869;DHT22;63419;42.262;12.210;2023-02-21T07:44:40;11.30;99.90
74869;DHT22;63419;42.262;12.210;2023-02-21T07:47:09;11.30;99.90
74869;DHT22;63419;42.262;12.210;2023-02-21T07:49:38;11.30;99.90
74869;DHT22;63419;42.262;12.210;2023-02-21T07:52:07;11.40;99.90
74869;DHT22;63419;42.262;12.210;2023-02-21T07:54:36;11.50;99.90
74869;DHT22;63419;42.262;12.210;2023-02-21T07:57:04;11.80;99.90
74869;DHT22;63419;42.262;12.210;2023-02-21T07:59:33;11.80;99.90
74869;DHT22;63419;42.262;12.210;2023-02-21T08:02:02;12.00;99.90
74869;DHT22;63419;42.262;12.210;2023-02-21T08:04:30;11.90;99.90
74869;DHT22;63419;42.262;12.210;2023-02-21T08:07:00;11.80;99.90
74869;DHT22;63419;42.262;12.210;2023-02-21T08:09:28;11.80;99.90
74869;DHT22;63419;42.262;12.210;2023-02-21T08:11:58;11.80;99.90
74869;DHT22;63419;42.262;12.210;2023-02-21T08:14:27;12.00;99.90
74869;DHT22;63419;42.262;12.210;2023-02-21T08:16:54;12.20;99.90
74869;DHT22;63419;42.262;12.210;2023-02-21T08:19:23;12.20;99.90
74869;DHT22;63419;42.262;12.210;2023-02-21T08:21:50;12.10;99.90
74869;DHT22;63419;42.262;12.210;2023-02-21T08:24:19;12.20;99.90
74869;DHT22;63419;42.262;12.210;2023-02-21T08:26:47;12.00;99.90
74869;DHT22;63419;42.262;12.210;2023-02-21T08:29:15;12.40;99.90
74869;DHT22;63419;42.262;12.210;2023-02-21T08:31:45;12.70;99.90
74869;DHT22;63419;42.262;12.210;2023-02-21T08:34:13;13.00;99.90
74869;DHT22;63419;42.262;12.210;2023-02-21T08:36:43;13.30;99.90
74869;DHT22;63419;42.262;12.210;2023-02-21T08:39:11;13.50;99.90
74869;DHT22;63419;42.262;12.210;2023-02-21T08:41:43;13.80;99.90
74869;DHT22;63419;42.262;12.210;2023-02-21T08:44:18;14.00;99.90
74869;DHT22;63419;42.262;12.210;2023-02-21T08:46:49;13.60;99.90
74869;DHT22;63419;42.262;12.210;2023-02-21T08:49:18;13.70;99.90
74869;DHT22;63419;42.262;12.210;2023-02-21T08:51:47;14.10;99.90
74869;DHT22;63419;42.262;12.210;2023-02-21T08:54:15;13.90;99.90
74869;DHT22;63419;42.262;12.210;2023-02-21T08:56:43;13.90;99.90
74869;DHT22;63419;42.262;12.210;2023-02-21T08:59:12;13.80;99.90
74869;DHT22;63419;42.262;12.210;2023-02-21T09:01:39;13.90;99.90
74869;DHT22;63419;42.262;12.210;2023-02-21T09:04:06;13.70;99.90
74869;DHT22;63419;42.262;12.210;2023-02-21T09:06:36;13.60;99.90
74869;DHT22;63419;42.262;12.210;2023-02-21T09:09:03;13.30;99.90
74869;DHT22;63419;42.262;12.210;2023-02-21T09:11:34;13.60;99.90
74869;DHT22;63419;42.262;12.210;2023-02-21T09:14:02;13.60;99.90
74869;DHT22;63419;42.262;12.210;2023-02-21T09:16:33;14.00;99.90
74869;DHT22;63419;42.262;12.210;2023-02-21T09:19:02;13.80;99.90
74869;DHT22;63419;42.262;12.210;2023-02-21T09:21:33;13.80;99.90
74869;DHT22;63419;42.262;12.210;2023-02-21T09:24:03;14.00;99.90
74869;DHT22;63419;42.262;12.210;2023-02-21T09:26:31;14.00;99.90
74869;DHT22;63419;42.262;12.210;2023-02-21T09:28:58;13.90;99.90
74869;DHT22;63419;42.262;12.210;2023-02-21T09:31:25;14.00;99.90
74869;DHT22;63419;42.262;12.210;2023-02-21T09:33:55;13.70;99.90
74869;DHT22;63419;42.262;12.210;2023-02-21T09:36:26;13.50;99.90
74869;DHT22;63419;42.262;12.210;2023-02-21T09:38:54;13.50;99.90
74869;DHT22;63419;42.262;12.210;2023-02-21T09:41:24;13.70;99.90
74869;DHT22;63419;42.262;12.210;2023-02-21T09:43:52;13.60;99.90
74869;DHT22;63419;42.262;12.210;2023-02-21T09:46:36;13.90;99.90
74869;DHT22;63419;42.262;12.210;2023-02-21T09:49:22;13.90;99.90
74869;DHT22;63419;42.262;12.210;2023-02-21T09:51:55;13.50;99.90
74869;DHT22;63419;42.262;12.210;2023-02-21T09:57:18;13.50;99.90
74869;DHT22;63419;42.262;12.210;2023-02-21T09:59:51;12.60;99.90
74869;DHT22;63419;42.262;12.210;2023-02-21T10:05:37;12.20;99.90
74869;DHT22;63419;42.262;12.210;2023-02-21T10:08:29;12.20;99.90
74869;DHT22;63419;42.262;12.210;2023-02-21T10:20:40;13.30;99.90
74869;DHT22;63419;42.262;12.210;2023-02-21T10:23:30;13.10;99.90
74869;DHT22;63419;42.262;12.210;2023-02-21T10:26:34;13.10;99.90
74869;DHT22;63419;42.262;12.210;2023-02-21T10:29:22;12.60;99.90
74869;DHT22;63419;42.262;12.210;2023-02-21T10:31:54;12.10;99.90
74869;DHT22;63419;42.262;12.210;2023-02-21T10:34:26;11.80;99.90
74869;DHT22;63419;42.262;12.210;2023-02-21T10:37:01;11.60;99.90
74869;DHT22;63419;42.262;12.210;2023-02-21T10:39:59;11.20;99.90
74869;DHT22;63419;42.262;12.210;2023-02-21T10:42:44;11.40;99.90
74869;DHT22;63419;42.262;12.210;2023-02-21T10:45:18;11.90;99.90
74869;DHT22;63419;42.262;12.210;2023-02-21T10:47:57;12.00;99.90
74869;DHT22;63419;42.262;12.210;2023-02-21T10:54:24;12.90;99.90
74869;DHT22;63419;42.262;12.210;2023-02-21T10:56:53;12.60;99.90
74869;DHT22;63419;42.262;12.210;2023-02-21T10:59:24;12.20;99.90
74869;DHT22;63419;42.262;12.210;2023-02-21T11:02:01;11.70;99.90
74869;DHT22;63419;42.262;12.210;2023-02-21T11:04:47;12.40;99.90
74869;DHT22;63419;42.262;12.210;2023-02-21T11:07:18;12.40;99.90
74869;DHT22;63419;42.262;12.210;2023-02-21T11:09:50;13.10;99.90
74869;DHT22;63419;42.262;12.210;2023-02-21T11:12:25;13.60;99.90
74869;DHT22;63419;42.262;12.210;2023-02-21T11:17:28;12.80;99.90
74869;DHT22;63419;42.262;12.210;2023-02-21T11:27:38;12.20;99.90
74869;DHT22;63419;42.262;12.210;2023-02-21T11:30:15;12.10;99.90
74869;DHT22;63419;42.262;12.210;2023-02-21T11:32:50;12.10;99.90
74869;DHT22;63419;42.262;12.210;2023-02-21T11:35:34;12.80;99.90
74869;DHT22;63419;42.262;12.210;2023-02-21T11:38:07;13.50;99.90
74869;DHT22;63419;42.262;12.210;2023-02-21T11:40:55;14.10;99.90
74869;DHT22;63419;42.262;12.210;2023-02-21T11:43:30;14.00;99.90
74869;DHT22;63419;42.262;12.210;2023-02-21T11:54:12;13.40;99.90
74869;DHT22;63419;42.262;12.210;2023-02-21T11:56:50;13.20;99.90
74869;DHT22;63419;42.262;12.210;2023-02-21T12:14:39;12.10;99.90
74869;DHT22;63419;42.262;12.210;2023-02-21T12:27:01;13.00;99.90
74869;DHT22;63419;42.262;12.210;2023-02-21T12:32:49;12.60;99.90
74869;DHT22;63419;42.262;12.210;2023-02-21T12:38:06;13.20;99.90
74869;DHT22;63419;42.262;12.210;2023-02-21T12:43:31;13.30;99.90
74869;DHT22;63419;42.262;12.210;2023-02-21T12:46:34;13.30;99.90
74869;DHT22;63419;42.262;12.210;2023-02-21T12:49:12;13.00;99.90
74869;DHT22;63419;42.262;12.210;2023-02-21T12:51:51;13.30;99.90
74869;DHT22;63419;42.262;12.210;2023-02-21T12:57:29;14.10;99.90
74869;DHT22;63419;42.262;12.210;2023-02-21T13:00:27;13.80;99.90
74869;DHT22;63419;42.262;12.210;2023-02-21T13:03:21;13.90;99.90
74869;DHT22;63419;42.262;12.210;2023-02-21T13:06:27;12.80;99.90
74869;DHT22;63419;42.262;12.210;2023-02-21T13:09:42;12.30;99.90
74869;DHT22;63419;42.262;12.210;2023-02-21T13:12:22;12.50;99.90
74869;DHT22;63419;42.262;12.210;2023-02-21T13:15:12;12.80;99.90
74869;DHT22;63419;42.262;12.210;2023-02-21T13:18:04;12.90;99.90
74869;DHT22;63419;42.262;12.210;2023-02-21T13:30:11;13.00;99.90
74869;DHT22;63419;42.262;12.210;2023-02-21T13:32:56;13.20;99.90
74869;DHT22;63419;42.262;12.210;2023-02-21T13:35:36;13.50;99.90
74869;DHT22;63419;42.262;12.210;2023-02-21T13:38:09;13.80;99.90
74869;DHT22;63419;42.262;12.210;2023-02-21T13:43:34;12.30;99.90
74869;DHT22;63419;42.262;12.210;2023-02-21T13:46:23;11.90;99.90
74869;DHT22;63419;42.262;12.210;2023-02-21T14:03:03;11.40;99.90
74869;DHT22;63419;42.262;12.210;2023-02-21T14:11:22;11.50;99.90
74869;DHT22;63419;42.262;12.210;2023-02-21T14:13:57;11.60;99.90
74869;DHT22;63419;42.262;12.210;2023-02-21T14:16:51;11.60;99.90
74869;DHT22;63419;42.262;12.210;2023-02-21T14:22:10;11.70;99.90
74869;DHT22;63419;42.262;12.210;2023-02-21T14:27:44;11.40;99.90
74869;DHT22;63419;42.262;12.210;2023-02-21T14:30:27;11.60;99.90
74869;DHT22;63419;42.262;12.210;2023-02-21T14:33:28;11.80;99.90
74869;DHT22;63419;42.262;12.210;2023-02-21T14:36:02;11.80;99.90
74869;DHT22;63419;42.262;12.210;2023-02-21T14:38:42;11.70;99.90
74869;DHT22;63419;42.262;12.210;2023-02-21T15:01:09;11.70;99.90
74869;DHT22;63419;42.262;12.210;2023-02-21T15:03:59;11.90;99.90
74869;DHT22;63419;42.262;12.210;2023-02-21T15:10:32;11.70;99.90
74869;DHT22;63419;42.262;12.210;2023-02-21T15:16:06;11.70;99.90
74869;DHT22;63419;42.262;12.210;2023-02-21T15:18:38;11.80;99.90
74869;DHT22;63419;42.262;12.210;2023-02-21T15:23:47;12.10;99.90
74869;DHT22;63419;42.262;12.210;2023-02-21T15:26:31;12.30;99.90
74869;DHT22;63419;42.262;12.210;2023-02-21T15:29:16;12.50;99.90
74869;DHT22;63419;42.262;12.210;2023-02-21T15:31:54;12.40;99.90
74869;DHT22;63419;42.262;12.210;2023-02-21T15:34:36;12.50;99.90
74869;DHT22;63419;42.262;12.210;2023-02-21T15:37:20;12.60;99.90
74869;DHT22;63419;42.262;12.210;2023-02-21T15:40:12;12.50;99.90
74869;DHT22;63419;42.262;12.210;2023-02-21T15:42:50;12.40;99.90
74869;DHT22;63419;42.262;12.210;2023-02-21T15:45:52;12.60;99.90
74869;DHT22;63419;42.262;12.210;2023-02-21T15:48:22;12.50;99.90
74869;DHT22;63419;42.262;12.210;2023-02-21T15:50:52;12.60;99.90
74869;DHT22;63419;42.262;12.210;2023-02-21T15:53:23;12.80;99.90
74869;DHT22;63419;42.262;12.210;2023-02-21T15:56:21;12.70;99.90
74869;DHT22;63419;42.262;12.210;2023-02-21T15:59:18;12.30;99.90
74869;DHT22;63419;42.262;12.210;2023-02-21T16:04:44;11.90;99.90
74869;DHT22;63419;42.262;12.210;2023-02-21T16:07:27;11.60;99.90
74869;DHT22;63419;42.262;12.210;2023-02-21T16:10:13;11.50;99.90
74869;DHT22;63419;42.262;12.210;2023-02-21T16:12:43;11.30;99.90
74869;DHT22;63419;42.262;12.210;2023-02-21T16:15:32;11.40;99.90
74869;DHT22;63419;42.262;12.210;2023-02-21T16:18:15;11.30;99.90
74869;DHT22;63419;42.262;12.210;2023-02-21T16:20:44;11.30;99.90
74869;DHT22;63419;42.262;12.210;2023-02-21T16:28:48;11.50;99.90
74869;DHT22;63419;42.262;12.210;2023-02-21T16:31:32;11.40;99.90
74869;DHT22;63419;42.262;12.210;2023-02-21T16:34:03;11.70;99.90
74869;DHT22;63419;42.262;12.210;2023-02-21T16:36:32;11.80;99.90
74869;DHT22;63419;42.262;12.210;2023-02-21T16:39:02;11.90;99.90
74869;DHT22;63419;42.262;12.210;2023-02-21T16:41:32;11.90;99.90
74869;DHT22;63419;42.262;12.210;2023-02-21T16:44:00;11.90;99.90
74869;DHT22;63419;42.262;12.210;2023-02-21T16:46:28;12.00;99.90
74869;DHT22;63419;42.262;12.210;2023-02-21T16:48:58;11.70;99.90
74869;DHT22;63419;42.262;12.210;2023-02-21T16:51:29;11.70;99.90
74869;DHT22;63419;42.262;12.210;2023-02-21T16:54:03;11.40;99.90
74869;DHT22;63419;42.262;12.210;2023-02-21T16:56:32;11.20;99.90
74869;DHT22;63419;42.262;12.210;2023-02-21T16:59:09;11.00;99.90
74869;DHT22;63419;42.262;12.210;2023-02-21T17:01:43;10.90;99.90
74869;DHT22;63419;42.262;12.210;2023-02-21T17:04:17;10.90;99.90
74869;DHT22;63419;42.262;12.210;2023-02-21T17:07:12;10.90;99.90
74869;DHT22;63419;42.262;12.210;2023-02-21T17:09:42;10.90;99.90
74869;DHT22;63419;42.262;12.210;2023-02-21T17:12:12;10.80;99.90
74869;DHT22;63419;42.262;12.210;2023-02-21T17:14:40;10.70;99.90
74869;DHT22;63419;42.262;12.210;2023-02-21T17:17:09;10.80;99.90
74869;DHT22;63419;42.262;12.210;2023-02-21T17:19:37;11.00;99.90
74869;DHT22;63419;42.262;12.210;2023-02-21T17:22:06;11.00;99.90
74869;DHT22;63419;42.262;12.210;2023-02-21T17:24:38;11.10;99.90
74869;DHT22;63419;42.262;12.210;2023-02-21T17:27:09;11.20;99.90
74869;DHT22;63419;42.262;12.210;2023-02-21T17:29:39;11.30;99.90
74869;DHT22;63419;42.262;12.210;2023-02-21T17:32:06;11.50;99.90
74869;DHT22;63419;42.262;12.210;2023-02-21T17:34:36;11.20;99.90
74869;DHT22;63419;42.262;12.210;2023-02-21T17:37:04;11.10;99.90
74869;DHT22;63419;42.262;12.210;2023-02-21T17:39:34;11.00;99.90
74869;DHT22;63419;42.262;12.210;2023-02-21T17:42:04;10.90;99.90
74869;DHT22;63419;42.262;12.210;2023-02-21T17:44:32;11.00;99.90
74869;DHT22;63419;42.262;12.210;2023-02-21T17:46:59;11.10;99.90
74869;DHT22;63419;42.262;12.210;2023-02-21T17:49:28;11.00;99.90
74869;DHT22;63419;42.262;12.210;2023-02-21T17:51:57;11.00;99.90
74869;DHT22;63419;42.262;12.210;2023-02-21T17:54:24;11.00;99.90
74869;DHT22;63419;42.262;12.210;2023-02-21T17:56:52;11.00;99.90
74869;DHT22;63419;42.262;12.210;2023-02-21T17:59:23;11.00;99.90
74869;DHT22;63419;42.262;12.210;2023-02-21T18:01:54;11.00;99.90
74869;DHT22;63419;42.262;12.210;2023-02-21T18:04:23;11.00;99.90
74869;DHT22;63419;42.262;12.210;2023-02-21T18:06:50;10.80;99.90
74869;DHT22;63419;42.262;12.210;2023-02-21T18:09:19;10.70;99.90
74869;DHT22;63419;42.262;12.210;2023-02-21T18:11:48;10.70;99.90
74869;DHT22;63419;42.262;12.210;2023-02-21T18:14:21;10.70;99.90
74869;DHT22;63419;42.262;12.210;2023-02-21T18:16:52;10.80;99.90
74869;DHT22;63419;42.262;12.210;2023-02-21T18:19:23;10.70;99.90
74869;DHT22;63419;42.262;12.210;2023-02-21T18:21:53;10.80;99.90
74869;DHT22;63419;42.262;12.210;2023-02-21T18:24:21;10.70;99.90
74869;DHT22;63419;42.262;12.210;2023-02-21T18:26:49;10.50;99.90
74869;DHT22;63419;42.262;12.210;2023-02-21T18:29:17;10.60;99.90
74869;DHT22;63419;42.262;12.210;2023-02-21T18:31:49;10.60;99.90
74869;DHT22;63419;42.262;12.210;2023-02-21T18:34:24;10.60;99.90
74869;DHT22;63419;42.262;12.210;2023-02-21T18:36:57;10.50;99.90
74869;DHT22;63419;42.262;12.210;2023-02-21T18:39:26;10.40;99.90
74869;DHT22;63419;42.262;12.210;2023-02-21T18:41:53;10.30;99.90
74869;DHT22;63419;42.262;12.210;2023-02-21T18:44:22;10.30;99.90
74869;DHT22;63419;42.262;12.210;2023-02-21T18:46:53;10.20;99.90
74869;DHT22;63419;42.262;12.210;2023-02-21T18:49:25;10.20;99.90
74869;DHT22;63419;42.262;12.210;2023-02-21T18:51:53;10.20;99.90
74869;DHT22;63419;42.262;12.210;2023-02-21T18:54:20;10.10;99.90
74869;DHT22;63419;42.262;12.210;2023-02-21T18:56:50;10.00;99.90
74869;DHT22;63419;42.262;12.210;2023-02-21T18:59:21;9.90;99.90
74869;DHT22;63419;42.262;12.210;2023-02-21T19:01:54;9.90;99.90
74869;DHT22;63419;42.262;12.210;2023-02-21T19:04:25;9.90;99.90
74869;DHT22;63419;42.262;12.210;2023-02-21T19:06:56;10.00;99.90
74869;DHT22;63419;42.262;12.210;2023-02-21T19:09:26;10.00;99.90
74869;DHT22;63419;42.262;12.210;2023-02-21T19:11:57;10.00;99.90
74869;DHT22;63419;42.262;12.210;2023-02-21T19:14:28;10.00;99.90
74869;DHT22;63419;42.262;12.210;2023-02-21T19:16:58;10.00;99.90
74869;DHT22;63419;42.262;12.210;2023-02-21T19:19:38;9.90;99.90